Terminal Aerodrome Forecast
Issued by NWS Charleston, WV

Current Version | Previous Version | Graphics & Text | Print | Product List | Glossary On
Versions: 1 2 3 4 5 6 7 8 9 10 11 12 13 14 15 16 17 18 19 20 21 22 23 24
000
FTUS41 KRLX 270848 AAA
TAFPKB
TAF AMD
KPKB 270848Z 2709/2806 00000KT P6SM BKN040
      TEMPO 2709/2710 BKN001
     FM271600 04006KT P6SM BKN045
     FM271900 04006KT P6SM SCT040
     FM272300 00000KT P6SM SKC=

USA.gov is the U.S. government's official web portal to all federal, state and local government web resources and services.